sensor_id;sensor_type;location;lat;lon;timestamp;temperature;humidity
39023;DHT22;25908;51.984;5.928;2023-04-25T00:02:17;9.10;99.90
39023;DHT22;25908;51.984;5.928;2023-04-25T00:04:43;9.10;99.90
39023;DHT22;25908;51.984;5.928;2023-04-25T00:07:09;9.10;99.90
39023;DHT22;25908;51.984;5.928;2023-04-25T00:09:34;9.00;99.90
39023;DHT22;25908;51.984;5.928;2023-04-25T00:12:00;9.00;99.90
39023;DHT22;25908;51.984;5.928;2023-04-25T00:14:27;9.00;99.90
39023;DHT22;25908;51.984;5.928;2023-04-25T00:16:53;8.90;99.90
39023;DHT22;25908;51.984;5.928;2023-04-25T00:19:19;8.90;99.90
39023;DHT22;25908;51.984;5.928;2023-04-25T00:21:45;8.90;99.90
39023;DHT22;25908;51.984;5.928;2023-04-25T00:24:12;8.90;99.90
39023;DHT22;25908;51.984;5.928;2023-04-25T00:26:37;8.90;99.90
39023;DHT22;25908;51.984;5.928;2023-04-25T00:29:03;8.80;99.90
39023;DHT22;25908;51.984;5.928;2023-04-25T00:31:29;8.80;99.90
39023;DHT22;25908;51.984;5.928;2023-04-25T00:33:55;8.70;99.90
39023;DHT22;25908;51.984;5.928;2023-04-25T00:36:20;8.70;99.90
39023;DHT22;25908;51.984;5.928;2023-04-25T00:38:46;8.60;99.90
39023;DHT22;25908;51.984;5.928;2023-04-25T00:41:12;8.70;99.90
39023;DHT22;25908;51.984;5.928;2023-04-25T00:43:37;8.60;99.90
39023;DHT22;25908;51.984;5.928;2023-04-25T00:46:04;8.60;99.90
39023;DHT22;25908;51.984;5.928;2023-04-25T00:48:29;8.60;99.90
39023;DHT22;25908;51.984;5.928;2023-04-25T00:50:58;8.60;99.90
39023;DHT22;25908;51.984;5.928;2023-04-25T00:53:25;8.50;99.90
39023;DHT22;25908;51.984;5.928;2023-04-25T00:55:52;8.50;99.90
39023;DHT22;25908;51.984;5.928;2023-04-25T00:58:18;8.50;99.90
39023;DHT22;25908;51.984;5.928;2023-04-25T01:00:45;8.50;99.90
39023;DHT22;25908;51.984;5.928;2023-04-25T01:03:15;8.50;99.90
39023;DHT22;25908;51.984;5.928;2023-04-25T01:05:41;8.50;99.90
39023;DHT22;25908;51.984;5.928;2023-04-25T01:08:07;8.50;99.90
39023;DHT22;25908;51.984;5.928;2023-04-25T01:10:33;8.50;99.90
39023;DHT22;25908;51.984;5.928;2023-04-25T01:12:58;8.50;99.90
39023;DHT22;25908;51.984;5.928;2023-04-25T01:15:24;8.50;99.90
39023;DHT22;25908;51.984;5.928;2023-04-25T01:17:50;8.50;99.90
39023;DHT22;25908;51.984;5.928;2023-04-25T01:20:16;8.50;99.90
39023;DHT22;25908;51.984;5.928;2023-04-25T01:22:42;8.50;99.90
39023;DHT22;25908;51.984;5.928;2023-04-25T01:25:08;8.50;99.90
39023;DHT22;25908;51.984;5.928;2023-04-25T01:27:36;8.50;99.90
39023;DHT22;25908;51.984;5.928;2023-04-25T01:30:03;8.40;99.90
39023;DHT22;25908;51.984;5.928;2023-04-25T01:32:30;8.40;99.90
39023;DHT22;25908;51.984;5.928;2023-04-25T01:35:07;8.50;99.90
39023;DHT22;25908;51.984;5.928;2023-04-25T01:37:40;8.40;99.90
39023;DHT22;25908;51.984;5.928;2023-04-25T01:40:07;8.50;99.90
39023;DHT22;25908;51.984;5.928;2023-04-25T01:42:35;8.50;99.90
39023;DHT22;25908;51.984;5.928;2023-04-25T01:45:01;8.50;99.90
39023;DHT22;25908;51.984;5.928;2023-04-25T01:47:27;8.40;99.90
39023;DHT22;25908;51.984;5.928;2023-04-25T01:49:53;8.50;99.90
39023;DHT22;25908;51.984;5.928;2023-04-25T01:52:18;8.40;99.90
39023;DHT22;25908;51.984;5.928;2023-04-25T01:54:44;8.40;99.90
39023;DHT22;25908;51.984;5.928;2023-04-25T01:57:11;8.40;99.90
39023;DHT22;25908;51.984;5.928;2023-04-25T01:59:37;8.40;99.90
39023;DHT22;25908;51.984;5.928;2023-04-25T02:02:02;8.40;99.90
39023;DHT22;25908;51.984;5.928;2023-04-25T02:04:30;8.50;99.90
39023;DHT22;25908;51.984;5.928;2023-04-25T02:06:55;8.40;99.90
39023;DHT22;25908;51.984;5.928;2023-04-25T02:09:21;8.40;99.90
39023;DHT22;25908;51.984;5.928;2023-04-25T02:11:47;8.40;99.90
39023;DHT22;25908;51.984;5.928;2023-04-25T02:14:13;8.40;99.90
39023;DHT22;25908;51.984;5.928;2023-04-25T02:16:38;8.40;99.90
39023;DHT22;25908;51.984;5.928;2023-04-25T02:19:05;8.50;99.90
39023;DHT22;25908;51.984;5.928;2023-04-25T02:21:31;8.40;99.90
39023;DHT22;25908;51.984;5.928;2023-04-25T02:23:57;8.40;99.90
39023;DHT22;25908;51.984;5.928;2023-04-25T02:26:23;8.40;99.90
39023;DHT22;25908;51.984;5.928;2023-04-25T02:28:50;8.40;99.90
39023;DHT22;25908;51.984;5.928;2023-04-25T02:31:16;8.40;99.90
39023;DHT22;25908;51.984;5.928;2023-04-25T02:33:42;8.40;99.90
39023;DHT22;25908;51.984;5.928;2023-04-25T02:36:08;8.40;99.90
39023;DHT22;25908;51.984;5.928;2023-04-25T02:38:35;8.30;99.90
39023;DHT22;25908;51.984;5.928;2023-04-25T02:41:01;8.30;99.90
39023;DHT22;25908;51.984;5.928;2023-04-25T02:43:26;8.30;99.90
39023;DHT22;25908;51.984;5.928;2023-04-25T02:45:52;8.30;99.90
39023;DHT22;25908;51.984;5.928;2023-04-25T02:48:17;8.30;99.90
39023;DHT22;25908;51.984;5.928;2023-04-25T02:50:43;8.30;99.90
39023;DHT22;25908;51.984;5.928;2023-04-25T02:53:09;8.20;99.90
39023;DHT22;25908;51.984;5.928;2023-04-25T02:55:34;8.20;99.90
39023;DHT22;25908;51.984;5.928;2023-04-25T02:58:00;8.20;99.90
39023;DHT22;25908;51.984;5.928;2023-04-25T03:00:26;8.20;99.90
39023;DHT22;25908;51.984;5.928;2023-04-25T03:02:51;8.20;99.90
39023;DHT22;25908;51.984;5.928;2023-04-25T03:05:17;8.20;99.90
39023;DHT22;25908;51.984;5.928;2023-04-25T03:07:43;8.10;99.90
39023;DHT22;25908;51.984;5.928;2023-04-25T03:10:10;8.10;99.90
39023;DHT22;25908;51.984;5.928;2023-04-25T03:12:36;8.10;99.90
39023;DHT22;25908;51.984;5.928;2023-04-25T03:15:02;8.00;99.90
39023;DHT22;25908;51.984;5.928;2023-04-25T03:17:28;8.00;99.90
39023;DHT22;25908;51.984;5.928;2023-04-25T03:19:53;8.00;99.90
39023;DHT22;25908;51.984;5.928;2023-04-25T03:22:19;8.00;99.90
39023;DHT22;25908;51.984;5.928;2023-04-25T03:24:45;8.00;99.90
39023;DHT22;25908;51.984;5.928;2023-04-25T03:27:10;7.90;99.90
39023;DHT22;25908;51.984;5.928;2023-04-25T03:29:36;7.90;99.90
39023;DHT22;25908;51.984;5.928;2023-04-25T03:32:02;7.90;99.90
39023;DHT22;25908;51.984;5.928;2023-04-25T03:34:27;7.90;99.90
39023;DHT22;25908;51.984;5.928;2023-04-25T03:36:53;7.90;99.90
39023;DHT22;25908;51.984;5.928;2023-04-25T03:39:19;7.80;99.90
39023;DHT22;25908;51.984;5.928;2023-04-25T03:41:44;7.80;99.90
39023;DHT22;25908;51.984;5.928;2023-04-25T03:44:10;7.80;99.90
39023;DHT22;25908;51.984;5.928;2023-04-25T03:46:35;7.80;99.90
39023;DHT22;25908;51.984;5.928;2023-04-25T03:49:01;7.70;99.90
39023;DHT22;25908;51.984;5.928;2023-04-25T03:51:26;7.70;99.90
39023;DHT22;25908;51.984;5.928;2023-04-25T03:53:52;7.70;99.90
39023;DHT22;25908;51.984;5.928;2023-04-25T03:56:18;7.80;99.90
39023;DHT22;25908;51.984;5.928;2023-04-25T03:58:44;7.70;99.90
39023;DHT22;25908;51.984;5.928;2023-04-25T04:01:09;7.70;99.90
39023;DHT22;25908;51.984;5.928;2023-04-25T04:03:36;7.70;99.90
39023;DHT22;25908;51.984;5.928;2023-04-25T04:06:05;7.70;99.90
39023;DHT22;25908;51.984;5.928;2023-04-25T04:08:32;7.70;99.90
39023;DHT22;25908;51.984;5.928;2023-04-25T04:10:58;7.70;99.90
39023;DHT22;25908;51.984;5.928;2023-04-25T04:13:28;7.70;99.90
39023;DHT22;25908;51.984;5.928;2023-04-25T04:15:54;7.70;99.90
39023;DHT22;25908;51.984;5.928;2023-04-25T04:18:21;7.60;99.90
39023;DHT22;25908;51.984;5.928;2023-04-25T04:20:46;7.60;99.90
39023;DHT22;25908;51.984;5.928;2023-04-25T04:23:12;7.70;99.90
39023;DHT22;25908;51.984;5.928;2023-04-25T04:25:38;7.60;99.90
39023;DHT22;25908;51.984;5.928;2023-04-25T04:28:05;7.50;99.90
39023;DHT22;25908;51.984;5.928;2023-04-25T04:30:32;7.50;99.90
39023;DHT22;25908;51.984;5.928;2023-04-25T04:33:01;7.50;99.90
39023;DHT22;25908;51.984;5.928;2023-04-25T04:35:27;7.50;99.90
39023;DHT22;25908;51.984;5.928;2023-04-25T04:37:53;7.50;99.90
39023;DHT22;25908;51.984;5.928;2023-04-25T04:40:19;7.40;99.90
39023;DHT22;25908;51.984;5.928;2023-04-25T04:42:45;7.50;99.90
39023;DHT22;25908;51.984;5.928;2023-04-25T04:45:11;7.50;99.90
39023;DHT22;25908;51.984;5.928;2023-04-25T04:47:38;7.50;99.90
39023;DHT22;25908;51.984;5.928;2023-04-25T04:50:06;7.50;99.90
39023;DHT22;25908;51.984;5.928;2023-04-25T04:52:32;7.50;99.90
39023;DHT22;25908;51.984;5.928;2023-04-25T04:54:58;7.50;99.90
39023;DHT22;25908;51.984;5.928;2023-04-25T04:57:23;7.50;99.90
39023;DHT22;25908;51.984;5.928;2023-04-25T04:59:49;7.60;99.90
39023;DHT22;25908;51.984;5.928;2023-04-25T05:02:15;7.60;99.90
39023;DHT22;25908;51.984;5.928;2023-04-25T05:04:41;7.60;99.90
39023;DHT22;25908;51.984;5.928;2023-04-25T05:07:06;7.70;99.90
39023;DHT22;25908;51.984;5.928;2023-04-25T05:09:32;7.70;99.90
39023;DHT22;25908;51.984;5.928;2023-04-25T05:11:57;7.70;99.90
39023;DHT22;25908;51.984;5.928;2023-04-25T05:14:23;7.60;99.90
39023;DHT22;25908;51.984;5.928;2023-04-25T05:16:49;7.60;99.90
39023;DHT22;25908;51.984;5.928;2023-04-25T05:19:14;7.60;99.90
39023;DHT22;25908;51.984;5.928;2023-04-25T05:21:40;7.60;99.90
39023;DHT22;25908;51.984;5.928;2023-04-25T05:24:05;7.60;99.90
39023;DHT22;25908;51.984;5.928;2023-04-25T05:26:31;7.60;99.90
39023;DHT22;25908;51.984;5.928;2023-04-25T05:28:57;7.60;99.90
39023;DHT22;25908;51.984;5.928;2023-04-25T05:31:23;7.60;99.90
39023;DHT22;25908;51.984;5.928;2023-04-25T05:33:49;7.70;99.90
39023;DHT22;25908;51.984;5.928;2023-04-25T05:36:14;7.60;99.90
39023;DHT22;25908;51.984;5.928;2023-04-25T05:38:40;7.80;99.90
39023;DHT22;25908;51.984;5.928;2023-04-25T05:41:06;7.80;99.90
39023;DHT22;25908;51.984;5.928;2023-04-25T05:43:32;7.80;99.90
39023;DHT22;25908;51.984;5.928;2023-04-25T05:45:58;7.90;99.90
39023;DHT22;25908;51.984;5.928;2023-04-25T05:48:24;7.80;99.90
39023;DHT22;25908;51.984;5.928;2023-04-25T05:50:50;7.90;99.90
39023;DHT22;25908;51.984;5.928;2023-04-25T05:53:17;7.90;99.90
39023;DHT22;25908;51.984;5.928;2023-04-25T05:55:43;7.90;99.90
39023;DHT22;25908;51.984;5.928;2023-04-25T05:58:09;7.90;99.90
39023;DHT22;25908;51.984;5.928;2023-04-25T06:00:36;7.90;99.90
39023;DHT22;25908;51.984;5.928;2023-04-25T06:03:02;7.90;99.90
39023;DHT22;25908;51.984;5.928;2023-04-25T06:05:28;7.90;99.90
39023;DHT22;25908;51.984;5.928;2023-04-25T06:07:55;7.90;99.90
39023;DHT22;25908;51.984;5.928;2023-04-25T06:10:21;8.00;99.90
39023;DHT22;25908;51.984;5.928;2023-04-25T06:12:47;8.00;99.90
39023;DHT22;25908;51.984;5.928;2023-04-25T06:15:13;8.10;99.90
39023;DHT22;25908;51.984;5.928;2023-04-25T06:17:39;8.20;99.90
39023;DHT22;25908;51.984;5.928;2023-04-25T06:20:06;8.20;99.90
39023;DHT22;25908;51.984;5.928;2023-04-25T06:22:33;8.30;99.90
39023;DHT22;25908;51.984;5.928;2023-04-25T06:24:59;8.40;99.90
39023;DHT22;25908;51.984;5.928;2023-04-25T06:27:25;8.40;99.90
39023;DHT22;25908;51.984;5.928;2023-04-25T06:29:51;8.50;99.90
39023;DHT22;25908;51.984;5.928;2023-04-25T06:32:16;8.50;99.90
39023;DHT22;25908;51.984;5.928;2023-04-25T06:34:44;8.60;99.90
39023;DHT22;25908;51.984;5.928;2023-04-25T06:37:09;8.70;99.90
39023;DHT22;25908;51.984;5.928;2023-04-25T06:39:35;8.70;99.90
39023;DHT22;25908;51.984;5.928;2023-04-25T06:42:00;8.80;99.90
39023;DHT22;25908;51.984;5.928;2023-04-25T06:44:26;8.80;99.90
39023;DHT22;25908;51.984;5.928;2023-04-25T06:46:54;8.90;99.90
39023;DHT22;25908;51.984;5.928;2023-04-25T06:49:20;9.00;99.90
39023;DHT22;25908;51.984;5.928;2023-04-25T06:51:46;9.00;99.90
39023;DHT22;25908;51.984;5.928;2023-04-25T06:54:12;9.10;99.90
39023;DHT22;25908;51.984;5.928;2023-04-25T06:56:37;9.10;99.90
39023;DHT22;25908;51.984;5.928;2023-04-25T06:59:03;9.20;99.90
39023;DHT22;25908;51.984;5.928;2023-04-25T07:01:29;9.30;99.90
39023;DHT22;25908;51.984;5.928;2023-04-25T07:03:55;9.30;99.90
39023;DHT22;25908;51.984;5.928;2023-04-25T07:06:20;9.30;99.90
39023;DHT22;25908;51.984;5.928;2023-04-25T07:08:46;9.40;99.90
39023;DHT22;25908;51.984;5.928;2023-04-25T07:11:12;9.40;99.90
39023;DHT22;25908;51.984;5.928;2023-04-25T07:13:37;9.50;99.90
39023;DHT22;25908;51.984;5.928;2023-04-25T07:16:03;9.40;99.90
39023;DHT22;25908;51.984;5.928;2023-04-25T07:18:29;9.60;99.90
39023;DHT22;25908;51.984;5.928;2023-04-25T07:20:55;9.90;99.90
39023;DHT22;25908;51.984;5.928;2023-04-25T07:23:20;10.20;99.90
39023;DHT22;25908;51.984;5.928;2023-04-25T07:25:46;10.60;99.90
39023;DHT22;25908;51.984;5.928;2023-04-25T07:28:12;10.80;99.90
39023;DHT22;25908;51.984;5.928;2023-04-25T07:30:37;11.20;99.90
39023;DHT22;25908;51.984;5.928;2023-04-25T07:33:03;11.80;99.90
39023;DHT22;25908;51.984;5.928;2023-04-25T07:35:29;12.40;99.90
39023;DHT22;25908;51.984;5.928;2023-04-25T07:37:56;13.00;99.90
39023;DHT22;25908;51.984;5.928;2023-04-25T07:40:21;13.30;99.50
39023;DHT22;25908;51.984;5.928;2023-04-25T07:42:47;13.30;98.90
39023;DHT22;25908;51.984;5.928;2023-04-25T07:45:13;13.20;98.80
39023;DHT22;25908;51.984;5.928;2023-04-25T07:47:39;13.20;98.30
39023;DHT22;25908;51.984;5.928;2023-04-25T07:50:06;13.10;98.10
39023;DHT22;25908;51.984;5.928;2023-04-25T07:52:32;12.90;97.60
39023;DHT22;25908;51.984;5.928;2023-04-25T07:54:57;13.00;97.40
39023;DHT22;25908;51.984;5.928;2023-04-25T07:57:24;12.90;97.20
39023;DHT22;25908;51.984;5.928;2023-04-25T07:59:49;12.90;97.20
39023;DHT22;25908;51.984;5.928;2023-04-25T08:02:15;12.80;97.00
39023;DHT22;25908;51.984;5.928;2023-04-25T08:04:41;12.60;96.80
39023;DHT22;25908;51.984;5.928;2023-04-25T08:07:06;12.60;96.70
39023;DHT22;25908;51.984;5.928;2023-04-25T08:09:32;12.60;96.70
39023;DHT22;25908;51.984;5.928;2023-04-25T08:12:02;12.60;96.10
39023;DHT22;25908;51.984;5.928;2023-04-25T08:14:28;12.60;96.00
39023;DHT22;25908;51.984;5.928;2023-04-25T08:16:56;12.90;96.20
39023;DHT22;25908;51.984;5.928;2023-04-25T08:19:22;13.30;95.70
39023;DHT22;25908;51.984;5.928;2023-04-25T08:21:47;13.80;95.10
39023;DHT22;25908;51.984;5.928;2023-04-25T08:24:13;14.30;93.70
39023;DHT22;25908;51.984;5.928;2023-04-25T08:26:39;14.80;92.60
39023;DHT22;25908;51.984;5.928;2023-04-25T08:29:06;14.90;90.60
39023;DHT22;25908;51.984;5.928;2023-04-25T08:31:31;15.10;88.30
39023;DHT22;25908;51.984;5.928;2023-04-25T08:33:57;15.30;86.60
39023;DHT22;25908;51.984;5.928;2023-04-25T08:36:23;15.60;84.90
39023;DHT22;25908;51.984;5.928;2023-04-25T08:38:49;15.90;81.20
39023;DHT22;25908;51.984;5.928;2023-04-25T08:41:15;16.20;79.00
39023;DHT22;25908;51.984;5.928;2023-04-25T08:43:42;16.00;77.20
39023;DHT22;25908;51.984;5.928;2023-04-25T08:46:09;15.60;76.40
39023;DHT22;25908;51.984;5.928;2023-04-25T08:48:36;15.20;76.60
39023;DHT22;25908;51.984;5.928;2023-04-25T08:51:02;14.70;77.10
39023;DHT22;25908;51.984;5.928;2023-04-25T08:53:32;14.20;78.10
39023;DHT22;25908;51.984;5.928;2023-04-25T08:56:00;13.90;79.40
39023;DHT22;25908;51.984;5.928;2023-04-25T08:58:30;13.60;80.70
39023;DHT22;25908;51.984;5.928;2023-04-25T09:00:57;13.60;81.10
39023;DHT22;25908;51.984;5.928;2023-04-25T09:03:22;13.60;81.30
39023;DHT22;25908;51.984;5.928;2023-04-25T09:05:49;13.50;81.60
39023;DHT22;25908;51.984;5.928;2023-04-25T09:08:15;13.40;82.40
39023;DHT22;25908;51.984;5.928;2023-04-25T09:10:41;13.30;83.00
39023;DHT22;25908;51.984;5.928;2023-04-25T09:13:13;13.10;83.80
39023;DHT22;25908;51.984;5.928;2023-04-25T09:15:52;13.00;85.30
39023;DHT22;25908;51.984;5.928;2023-04-25T09:18:32;12.80;86.40
39023;DHT22;25908;51.984;5.928;2023-04-25T09:21:07;12.70;86.80
39023;DHT22;25908;51.984;5.928;2023-04-25T09:23:40;12.70;87.10
39023;DHT22;25908;51.984;5.928;2023-04-25T09:26:07;12.60;86.70
39023;DHT22;25908;51.984;5.928;2023-04-25T09:28:37;12.50;85.10
39023;DHT22;25908;51.984;5.928;2023-04-25T09:31:04;12.50;84.20
39023;DHT22;25908;51.984;5.928;2023-04-25T09:33:33;12.50;84.30
39023;DHT22;25908;51.984;5.928;2023-04-25T09:36:09;12.60;84.40
39023;DHT22;25908;51.984;5.928;2023-04-25T09:38:43;12.70;84.50
39023;DHT22;25908;51.984;5.928;2023-04-25T09:41:10;12.90;84.90
39023;DHT22;25908;51.984;5.928;2023-04-25T09:43:36;12.90;84.50
39023;DHT22;25908;51.984;5.928;2023-04-25T09:46:03;13.00;83.60
39023;DHT22;25908;51.984;5.928;2023-04-25T09:48:32;13.20;82.40
39023;DHT22;25908;51.984;5.928;2023-04-25T09:53:29;14.20;80.90
39023;DHT22;25908;51.984;5.928;2023-04-25T09:55:56;14.70;80.00
39023;DHT22;25908;51.984;5.928;2023-04-25T09:58:24;15.10;78.30
39023;DHT22;25908;51.984;5.928;2023-04-25T10:00:51;15.40;77.10
39023;DHT22;25908;51.984;5.928;2023-04-25T10:03:17;15.70;76.40
39023;DHT22;25908;51.984;5.928;2023-04-25T10:05:43;16.00;74.90
39023;DHT22;25908;51.984;5.928;2023-04-25T10:08:10;16.10;73.90
39023;DHT22;25908;51.984;5.928;2023-04-25T10:10:37;16.40;72.60
39023;DHT22;25908;51.984;5.928;2023-04-25T10:13:05;16.40;70.20
39023;DHT22;25908;51.984;5.928;2023-04-25T10:15:35;16.20;68.70
39023;DHT22;25908;51.984;5.928;2023-04-25T10:18:05;15.80;68.30
39023;DHT22;25908;51.984;5.928;2023-04-25T10:20:32;15.40;68.10
39023;DHT22;25908;51.984;5.928;2023-04-25T10:23:06;15.00;67.80
39023;DHT22;25908;51.984;5.928;2023-04-25T10:25:34;14.70;68.60
39023;DHT22;25908;51.984;5.928;2023-04-25T10:28:00;14.40;69.50
39023;DHT22;25908;51.984;5.928;2023-04-25T10:30:27;14.30;70.10
39023;DHT22;25908;51.984;5.928;2023-04-25T10:32:55;14.40;70.40
39023;DHT22;25908;51.984;5.928;2023-04-25T10:35:26;14.50;69.40
39023;DHT22;25908;51.984;5.928;2023-04-25T10:38:11;14.40;69.00
39023;DHT22;25908;51.984;5.928;2023-04-25T10:40:38;14.30;68.40
39023;DHT22;25908;51.984;5.928;2023-04-25T10:45:59;13.80;70.90
39023;DHT22;25908;51.984;5.928;2023-04-25T10:48:27;13.60;73.10
39023;DHT22;25908;51.984;5.928;2023-04-25T10:51:09;13.40;74.90
39023;DHT22;25908;51.984;5.928;2023-04-25T10:53:34;13.40;77.40
39023;DHT22;25908;51.984;5.928;2023-04-25T10:56:00;13.30;78.80
39023;DHT22;25908;51.984;5.928;2023-04-25T10:58:26;13.30;79.70
39023;DHT22;25908;51.984;5.928;2023-04-25T11:00:53;13.30;80.20
39023;DHT22;25908;51.984;5.928;2023-04-25T11:03:21;13.30;80.10
39023;DHT22;25908;51.984;5.928;2023-04-25T11:05:48;13.30;79.80
39023;DHT22;25908;51.984;5.928;2023-04-25T11:08:19;13.40;79.70
39023;DHT22;25908;51.984;5.928;2023-04-25T11:10:50;13.30;79.80
39023;DHT22;25908;51.984;5.928;2023-04-25T11:13:16;13.40;79.70
39023;DHT22;25908;51.984;5.928;2023-04-25T11:15:42;13.40;78.70
39023;DHT22;25908;51.984;5.928;2023-04-25T11:18:07;13.50;78.20
39023;DHT22;25908;51.984;5.928;2023-04-25T11:20:33;13.60;78.10
39023;DHT22;25908;51.984;5.928;2023-04-25T11:22:59;13.70;78.50
39023;DHT22;25908;51.984;5.928;2023-04-25T11:25:25;13.90;78.10
39023;DHT22;25908;51.984;5.928;2023-04-25T11:27:56;14.20;77.90
39023;DHT22;25908;51.984;5.928;2023-04-25T11:30:24;14.30;77.10
39023;DHT22;25908;51.984;5.928;2023-04-25T11:32:51;14.20;74.80
39023;DHT22;25908;51.984;5.928;2023-04-25T11:35:20;14.20;74.50
39023;DHT22;25908;51.984;5.928;2023-04-25T11:37:48;14.30;74.10
39023;DHT22;25908;51.984;5.928;2023-04-25T11:40:14;14.50;73.40
39023;DHT22;25908;51.984;5.928;2023-04-25T11:42:44;14.70;72.60
39023;DHT22;25908;51.984;5.928;2023-04-25T11:45:12;14.60;69.40
39023;DHT22;25908;51.984;5.928;2023-04-25T11:47:38;14.70;68.70
39023;DHT22;25908;51.984;5.928;2023-04-25T11:50:06;14.70;67.90
39023;DHT22;25908;51.984;5.928;2023-04-25T11:52:43;14.70;68.00
39023;DHT22;25908;51.984;5.928;2023-04-25T11:55:17;14.70;67.80
39023;DHT22;25908;51.984;5.928;2023-04-25T11:57:44;14.70;67.70
39023;DHT22;25908;51.984;5.928;2023-04-25T12:00:15;14.70;67.80
39023;DHT22;25908;51.984;5.928;2023-04-25T12:02:43;14.70;67.90
39023;DHT22;25908;51.984;5.928;2023-04-25T12:05:10;14.60;67.10
39023;DHT22;25908;51.984;5.928;2023-04-25T12:07:36;14.60;66.60
39023;DHT22;25908;51.984;5.928;2023-04-25T12:10:10;14.60;66.90
39023;DHT22;25908;51.984;5.928;2023-04-25T12:12:37;14.50;65.80
39023;DHT22;25908;51.984;5.928;2023-04-25T12:15:24;14.40;66.00
39023;DHT22;25908;51.984;5.928;2023-04-25T12:17:51;14.30;66.70
39023;DHT22;25908;51.984;5.928;2023-04-25T12:20:24;14.30;67.70
39023;DHT22;25908;51.984;5.928;2023-04-25T12:22:51;13.90;68.70
39023;DHT22;25908;51.984;5.928;2023-04-25T12:25:40;13.70;69.30
39023;DHT22;25908;51.984;5.928;2023-04-25T12:28:36;13.40;70.60
39023;DHT22;25908;51.984;5.928;2023-04-25T12:31:04;13.20;71.30
39023;DHT22;25908;51.984;5.928;2023-04-25T12:33:34;13.00;72.00
39023;DHT22;25908;51.984;5.928;2023-04-25T12:36:00;13.00;73.20
39023;DHT22;25908;51.984;5.928;2023-04-25T12:38:36;12.80;74.60
39023;DHT22;25908;51.984;5.928;2023-04-25T12:41:02;12.70;74.10
39023;DHT22;25908;51.984;5.928;2023-04-25T12:43:27;12.60;74.20
39023;DHT22;25908;51.984;5.928;2023-04-25T12:45:55;12.70;74.50
39023;DHT22;25908;51.984;5.928;2023-04-25T12:48:21;12.80;74.90
39023;DHT22;25908;51.984;5.928;2023-04-25T12:50:48;12.80;74.70
39023;DHT22;25908;51.984;5.928;2023-04-25T12:53:21;12.80;74.20
39023;DHT22;25908;51.984;5.928;2023-04-25T12:55:48;12.80;73.80
39023;DHT22;25908;51.984;5.928;2023-04-25T12:58:15;12.80;74.10
39023;DHT22;25908;51.984;5.928;2023-04-25T13:00:41;12.80;74.50
39023;DHT22;25908;51.984;5.928;2023-04-25T13:03:07;12.90;75.10
39023;DHT22;25908;51.984;5.928;2023-04-25T13:05:33;13.00;75.30
39023;DHT22;25908;51.984;5.928;2023-04-25T13:07:59;13.00;75.30
39023;DHT22;25908;51.984;5.928;2023-04-25T13:10:24;13.10;75.10
39023;DHT22;25908;51.984;5.928;2023-04-25T13:12:50;13.10;74.70
39023;DHT22;25908;51.984;5.928;2023-04-25T13:15:16;13.10;75.00
39023;DHT22;25908;51.984;5.928;2023-04-25T13:17:42;13.20;74.30
39023;DHT22;25908;51.984;5.928;2023-04-25T13:20:08;13.40;74.50
39023;DHT22;25908;51.984;5.928;2023-04-25T13:22:38;13.40;73.60
39023;DHT22;25908;51.984;5.928;2023-04-25T13:25:05;13.40;73.30
39023;DHT22;25908;51.984;5.928;2023-04-25T13:27:32;13.40;73.50
39023;DHT22;25908;51.984;5.928;2023-04-25T13:30:00;13.30;73.30
39023;DHT22;25908;51.984;5.928;2023-04-25T13:32:26;13.30;73.00
39023;DHT22;25908;51.984;5.928;2023-04-25T13:34:52;13.20;70.30
39023;DHT22;25908;51.984;5.928;2023-04-25T13:37:18;13.10;69.40
39023;DHT22;25908;51.984;5.928;2023-04-25T13:39:44;13.00;69.50
39023;DHT22;25908;51.984;5.928;2023-04-25T13:42:10;13.00;69.50
39023;DHT22;25908;51.984;5.928;2023-04-25T13:44:36;13.00;68.90
39023;DHT22;25908;51.984;5.928;2023-04-25T13:47:02;12.90;69.40
39023;DHT22;25908;51.984;5.928;2023-04-25T13:49:28;12.90;69.80
39023;DHT22;25908;51.984;5.928;2023-04-25T13:51:53;13.00;70.20
39023;DHT22;25908;51.984;5.928;2023-04-25T13:54:19;13.00;69.50
39023;DHT22;25908;51.984;5.928;2023-04-25T13:56:45;13.10;68.30
39023;DHT22;25908;51.984;5.928;2023-04-25T13:59:10;13.10;68.20
39023;DHT22;25908;51.984;5.928;2023-04-25T14:01:36;13.10;68.50
39023;DHT22;25908;51.984;5.928;2023-04-25T14:04:02;13.10;68.80
39023;DHT22;25908;51.984;5.928;2023-04-25T14:06:31;13.20;69.20
39023;DHT22;25908;51.984;5.928;2023-04-25T14:08:57;13.30;69.40
39023;DHT22;25908;51.984;5.928;2023-04-25T14:11:23;13.20;69.30
39023;DHT22;25908;51.984;5.928;2023-04-25T14:13:48;13.20;68.80
39023;DHT22;25908;51.984;5.928;2023-04-25T14:16:15;13.30;68.80
39023;DHT22;25908;51.984;5.928;2023-04-25T14:18:41;13.30;68.70
39023;DHT22;25908;51.984;5.928;2023-04-25T14:21:06;13.20;68.60
39023;DHT22;25908;51.984;5.928;2023-04-25T14:23:32;13.10;68.40
39023;DHT22;25908;51.984;5.928;2023-04-25T14:25:58;13.00;68.60
39023;DHT22;25908;51.984;5.928;2023-04-25T14:28:23;13.00;68.90
39023;DHT22;25908;51.984;5.928;2023-04-25T14:30:49;12.90;69.20
39023;DHT22;25908;51.984;5.928;2023-04-25T14:33:15;12.80;69.40
39023;DHT22;25908;51.984;5.928;2023-04-25T14:35:41;12.80;69.80
39023;DHT22;25908;51.984;5.928;2023-04-25T14:38:07;12.90;68.90
39023;DHT22;25908;51.984;5.928;2023-04-25T14:40:33;12.90;68.10
39023;DHT22;25908;51.984;5.928;2023-04-25T14:42:58;12.90;67.80
39023;DHT22;25908;51.984;5.928;2023-04-25T14:45:24;12.80;68.00
39023;DHT22;25908;51.984;5.928;2023-04-25T14:47:52;12.80;68.10
39023;DHT22;25908;51.984;5.928;2023-04-25T14:50:21;12.80;67.80
39023;DHT22;25908;51.984;5.928;2023-04-25T14:52:46;12.80;67.90
39023;DHT22;25908;51.984;5.928;2023-04-25T14:55:12;12.80;67.90
39023;DHT22;25908;51.984;5.928;2023-04-25T14:57:38;12.80;67.80
39023;DHT22;25908;51.984;5.928;2023-04-25T15:00:05;12.80;67.30
39023;DHT22;25908;51.984;5.928;2023-04-25T15:02:34;12.80;67.20
39023;DHT22;25908;51.984;5.928;2023-04-25T15:05:00;12.80;67.20
39023;DHT22;25908;51.984;5.928;2023-04-25T15:07:26;12.80;67.70
39023;DHT22;25908;51.984;5.928;2023-04-25T15:09:51;12.80;68.50
39023;DHT22;25908;51.984;5.928;2023-04-25T15:12:18;12.70;68.90
39023;DHT22;25908;51.984;5.928;2023-04-25T15:14:46;12.80;68.60
39023;DHT22;25908;51.984;5.928;2023-04-25T15:17:11;12.60;67.50
39023;DHT22;25908;51.984;5.928;2023-04-25T15:19:40;12.60;67.30
39023;DHT22;25908;51.984;5.928;2023-04-25T15:22:06;12.60;67.10
39023;DHT22;25908;51.984;5.928;2023-04-25T15:24:32;12.70;66.70
39023;DHT22;25908;51.984;5.928;2023-04-25T15:26:58;12.70;66.70
39023;DHT22;25908;51.984;5.928;2023-04-25T15:29:25;12.80;67.20
39023;DHT22;25908;51.984;5.928;2023-04-25T15:31:51;12.70;67.20
39023;DHT22;25908;51.984;5.928;2023-04-25T15:34:17;12.70;67.60
39023;DHT22;25908;51.984;5.928;2023-04-25T15:36:43;12.60;68.30
39023;DHT22;25908;51.984;5.928;2023-04-25T15:39:08;12.50;69.10
39023;DHT22;25908;51.984;5.928;2023-04-25T15:41:35;12.50;69.90